createdAt,value
2018-05-31T00:00:34.426Z,7.23
2018-05-31T00:03:01.929Z,8.10
2018-05-31T00:05:29.434Z,7.50
2018-05-31T00:07:56.991Z,7.67
2018-05-31T00:10:24.526Z,8.77
2018-05-31T00:12:52.916Z,7.13
2018-05-31T00:15:20.392Z,7.43
2018-05-31T00:17:48.041Z,7.20
2018-05-31T00:20:15.567Z,7.97
2018-05-31T00:22:43.924Z,8.13
2018-05-31T00:25:11.430Z,8.23
2018-05-31T00:27:38.948Z,7.20
2018-05-31T00:30:06.457Z,8.50
2018-05-31T00:32:34.060Z,7.17
2018-05-31T00:35:01.601Z,8.90
2018-05-31T00:37:29.134Z,7.77
2018-05-31T00:39:56.612Z,8.47
2018-05-31T00:42:24.180Z,8.70
2018-05-31T00:44:53.175Z,9.10
2018-05-31T00:47:20.672Z,8.40
2018-05-31T00:49:48.148Z,8.93
2018-05-31T00:52:15.638Z,9.63
2018-05-31T00:54:43.232Z,8.97
2018-05-31T00:57:11.504Z,9.60
2018-05-31T00:59:39.791Z,8.80
2018-05-31T01:02:07.344Z,9.17
2018-05-31T01:04:35.600Z,9.20
2018-05-31T01:07:03.084Z,9.37
2018-05-31T01:09:30.592Z,9.50
2018-05-31T01:11:58.178Z,9.53
2018-05-31T01:14:25.655Z,9.90
2018-05-31T01:16:53.937Z,9.33
2018-05-31T01:19:21.464Z,10.10
2018-05-31T01:21:49.020Z,9.40
2018-05-31T01:24:16.875Z,10.07
2018-05-31T01:26:44.463Z,9.40
2018-05-31T01:29:12.752Z,8.90
2018-05-31T01:31:41.168Z,9.37
2018-05-31T01:34:08.691Z,9.40
2018-05-31T01:36:36.180Z,9.47
2018-05-31T01:39:03.674Z,9.50
2018-05-31T01:41:31.196Z,9.13
2018-05-31T01:43:58.756Z,9.50
2018-05-31T01:46:27.058Z,9.63
2018-05-31T01:48:54.542Z,8.93
2018-05-31T01:51:22.970Z,9.60
2018-05-31T01:53:53.339Z,10.57
2018-05-31T01:56:21.612Z,10.30
2018-05-31T01:58:49.882Z,9.50
2018-05-31T02:01:18.207Z,10.07
2018-05-31T02:03:45.728Z,8.77
2018-05-31T02:06:13.964Z,10.03
2018-05-31T02:08:41.508Z,9.10
2018-05-31T02:11:09.054Z,9.73
2018-05-31T02:13:36.588Z,9.93
2018-05-31T02:16:04.101Z,9.40
2018-05-31T02:18:31.627Z,8.13
2018-05-31T02:20:59.100Z,8.50
2018-05-31T02:23:26.612Z,9.07
2018-05-31T02:25:54.862Z,9.50
2018-05-31T02:28:22.480Z,8.47
2018-05-31T02:30:49.956Z,9.30
2018-05-31T02:33:17.468Z,9.77
2018-05-31T02:35:44.995Z,9.37
2018-05-31T02:38:12.612Z,9.30
2018-05-31T02:40:40.105Z,9.30
2018-05-31T02:43:08.701Z,9.50
2018-05-31T02:45:36.207Z,9.93
2018-05-31T02:48:03.683Z,9.80
2018-05-31T02:50:31.209Z,9.73
2018-05-31T02:52:58.688Z,9.87
2018-05-31T02:55:26.296Z,9.60
2018-05-31T02:57:54.674Z,10.10
2018-05-31T03:00:22.996Z,10.40
2018-05-31T03:02:50.516Z,10.30
2018-05-31T03:05:19.664Z,10.07
2018-05-31T03:07:47.234Z,9.60
2018-05-31T03:10:14.850Z,10.70
2018-05-31T03:12:42.399Z,10.17
2018-05-31T03:15:09.909Z,9.77
2018-05-31T03:17:37.405Z,10.40
2018-05-31T03:20:05.696Z,9.70
2018-05-31T03:22:33.193Z,9.37
2018-05-31T03:25:01.127Z,10.13
2018-05-31T03:27:28.646Z,9.80
2018-05-31T03:29:56.186Z,10.50
2018-05-31T03:32:23.685Z,9.23
2018-05-31T03:34:51.972Z,9.90
2018-05-31T03:37:19.529Z,9.77
2018-05-31T03:39:47.026Z,10.03
2018-05-31T03:42:14.526Z,9.30
2018-05-31T03:44:42.806Z,9.20
2018-05-31T03:47:11.111Z,9.40
2018-05-31T03:49:38.615Z,9.80
2018-05-31T03:52:06.875Z,9.70
2018-05-31T03:54:35.897Z,8.13
2018-05-31T03:57:04.285Z,9.30
2018-05-31T03:59:32.561Z,8.43
2018-05-31T04:02:00.865Z,7.77
2018-05-31T04:04:28.385Z,8.67
2018-05-31T04:06:55.897Z,9.07
2018-05-31T04:09:23.589Z,8.47
2018-05-31T04:11:51.869Z,9.30
2018-05-31T04:14:19.425Z,9.30
2018-05-31T04:16:46.909Z,7.57
2018-05-31T04:19:14.469Z,8.43
2018-05-31T04:21:42.824Z,7.87
2018-05-31T04:24:11.109Z,8.40
2018-05-31T04:26:39.378Z,8.07
2018-05-31T04:29:07.653Z,8.90
2018-05-31T04:31:35.920Z,8.20
2018-05-31T04:34:03.409Z,7.73
2018-05-31T04:36:30.902Z,7.90
2018-05-31T04:38:58.425Z,7.70
2018-05-31T04:41:25.900Z,8.20
2018-05-31T04:43:53.389Z,8.20
2018-05-31T04:46:20.969Z,7.70
2018-05-31T04:48:48.767Z,6.30
2018-05-31T04:51:16.269Z,6.80
2018-05-31T04:53:43.761Z,7.30
2018-05-31T04:56:12.134Z,7.13
2018-05-31T04:58:40.401Z,7.57
2018-05-31T05:01:07.904Z,7.90
2018-05-31T05:03:35.417Z,7.53
2018-05-31T05:06:11.253Z,7.97
2018-05-31T05:08:38.751Z,7.23
2018-05-31T05:11:06.258Z,6.40
2018-05-31T05:13:33.744Z,6.67
2018-05-31T05:16:02.836Z,6.10
2018-05-31T05:18:31.128Z,6.27
2018-05-31T05:20:59.548Z,6.70
2018-05-31T05:23:27.624Z,6.60
2018-05-31T05:25:55.121Z,6.37
2018-05-31T05:28:22.684Z,6.27
2018-05-31T05:30:51.240Z,5.57
2018-05-31T05:33:18.837Z,6.00
2018-05-31T05:35:46.425Z,6.50
2018-05-31T05:38:13.927Z,5.60
2018-05-31T05:40:41.410Z,6.53
2018-05-31T05:43:08.967Z,6.80
2018-05-31T05:45:37.217Z,6.00
2018-05-31T05:48:04.745Z,6.13
2018-05-31T05:50:32.361Z,5.53
2018-05-31T05:53:00.629Z,5.60
2018-05-31T05:55:28.925Z,5.63
2018-05-31T05:57:56.445Z,5.50
2018-05-31T06:00:23.966Z,6.17
2018-05-31T06:02:51.510Z,5.47
2018-05-31T06:05:19.004Z,5.73
2018-05-31T06:07:46.509Z,5.80
2018-05-31T06:10:14.059Z,6.13
2018-05-31T06:12:41.499Z,5.57
2018-05-31T06:15:09.765Z,5.17
2018-05-31T06:17:37.250Z,5.27
2018-05-31T06:20:04.753Z,5.67
2018-05-31T06:22:32.256Z,5.80
2018-05-31T06:25:00.518Z,6.07
2018-05-31T06:27:28.261Z,5.30
2018-05-31T06:29:55.846Z,6.03
2018-05-31T06:32:24.114Z,5.60
2018-05-31T06:34:51.628Z,5.60
2018-05-31T06:37:19.180Z,5.40
2018-05-31T06:39:47.401Z,5.30
2018-05-31T06:42:14.871Z,5.30
2018-05-31T06:44:43.148Z,5.40
2018-05-31T06:47:11.402Z,4.90
2018-05-31T06:49:38.977Z,5.10
2018-05-31T06:52:07.264Z,4.63
2018-05-31T06:54:34.813Z,4.83
2018-05-31T06:57:03.071Z,5.50
2018-05-31T06:59:30.686Z,4.73
2018-05-31T07:01:58.172Z,3.97
2018-05-31T07:04:25.690Z,4.60
2018-05-31T07:06:54.009Z,4.90
2018-05-31T07:09:21.463Z,5.23
2018-05-31T07:11:49.076Z,4.23
2018-05-31T07:14:16.588Z,4.57
2018-05-31T07:16:44.080Z,4.10
2018-05-31T07:19:11.576Z,4.23
2018-05-31T07:21:39.104Z,4.10
2018-05-31T07:24:06.625Z,4.87
2018-05-31T07:26:34.200Z,4.87
2018-05-31T07:29:01.730Z,5.17
2018-05-31T07:31:29.336Z,5.77
2018-05-31T07:33:56.832Z,4.13
2018-05-31T07:36:24.346Z,4.40
2018-05-31T07:38:51.826Z,4.83
2018-05-31T07:41:19.383Z,4.70
2018-05-31T07:43:46.864Z,5.40
2018-05-31T07:46:14.364Z,5.10
2018-05-31T07:48:42.737Z,6.57
2018-05-31T07:51:11.103Z,7.13
2018-05-31T07:53:38.644Z,7.30
2018-05-31T07:56:06.151Z,6.30
2018-05-31T07:58:33.649Z,6.80
2018-05-31T08:01:01.128Z,6.10
2018-05-31T08:03:28.657Z,6.20
2018-05-31T08:05:56.277Z,5.10
2018-05-31T08:08:24.557Z,7.00
2018-05-31T08:10:52.823Z,6.77
2018-05-31T08:13:21.133Z,5.10
2018-05-31T08:15:48.698Z,5.00
2018-05-31T08:18:16.239Z,6.40
2018-05-31T08:20:43.736Z,5.40
2018-05-31T08:23:11.626Z,5.03
2018-05-31T08:25:39.899Z,5.30
2018-05-31T08:28:08.177Z,6.33
2018-05-31T08:30:36.427Z,5.57
2018-05-31T08:33:04.021Z,5.80
2018-05-31T08:35:32.513Z,6.40
2018-05-31T08:38:00.027Z,7.03
2018-05-31T08:40:33.929Z,8.87
2018-05-31T08:43:01.425Z,6.50
2018-05-31T08:45:29.681Z,6.67
2018-05-31T08:47:57.253Z,8.13
2018-05-31T08:50:25.563Z,6.63
2018-05-31T08:52:53.139Z,6.77
2018-05-31T08:55:20.634Z,5.50
2018-05-31T08:57:48.136Z,7.40
2018-05-31T09:00:15.744Z,5.77
2018-05-31T09:02:43.249Z,5.50
2018-05-31T09:05:10.790Z,6.33
2018-05-31T09:07:39.045Z,6.47
2018-05-31T09:10:07.436Z,18.90
2018-05-31T09:12:35.702Z,8.43
2018-05-31T09:15:03.230Z,6.00
2018-05-31T09:17:33.834Z,5.00
2018-05-31T09:20:01.408Z,5.00
2018-05-31T09:22:29.068Z,7.47
2018-05-31T09:24:56.605Z,5.73
2018-05-31T09:27:24.219Z,5.23
2018-05-31T09:29:51.719Z,5.90
2018-05-31T09:32:19.260Z,6.83
2018-05-31T09:34:46.856Z,5.80
2018-05-31T09:37:14.572Z,6.07
2018-05-31T09:39:42.090Z,6.03
2018-05-31T09:42:09.626Z,6.13
2018-05-31T09:44:37.110Z,6.10
2018-05-31T09:47:04.636Z,6.27
2018-05-31T09:49:32.127Z,5.53
2018-05-31T09:51:59.654Z,5.60
2018-05-31T09:54:27.176Z,6.10
2018-05-31T09:56:55.434Z,5.30
2018-05-31T09:59:23.049Z,5.63
2018-05-31T10:01:50.525Z,6.60
2018-05-31T10:04:18.046Z,5.67
2018-05-31T10:06:45.682Z,5.73
2018-05-31T10:09:13.976Z,6.20
2018-05-31T10:11:41.500Z,7.40
2018-05-31T10:14:09.027Z,10.83
2018-05-31T10:16:36.666Z,10.10
2018-05-31T10:19:04.274Z,7.97
2018-05-31T10:21:31.860Z,7.40
2018-05-31T10:24:00.151Z,6.93
2018-05-31T10:26:27.649Z,6.53
2018-05-31T10:28:55.257Z,5.90
2018-05-31T10:31:23.252Z,5.57
2018-05-31T10:33:50.772Z,6.10
2018-05-31T10:36:19.041Z,6.53
2018-05-31T10:38:47.316Z,6.23
2018-05-31T10:41:14.867Z,5.90
2018-05-31T10:43:42.402Z,7.77
2018-05-31T10:46:09.912Z,6.10
2018-05-31T10:48:37.427Z,5.77
2018-05-31T10:51:04.907Z,6.53
2018-05-31T10:53:33.222Z,5.90
2018-05-31T10:56:00.727Z,7.10
2018-05-31T10:58:28.251Z,34.00
2018-05-31T11:00:55.767Z,6.50
2018-05-31T11:03:24.121Z,6.00
2018-05-31T11:05:51.631Z,5.33
2018-05-31T11:08:19.139Z,5.30
2018-05-31T11:10:46.708Z,5.30
2018-05-31T11:13:14.976Z,4.90
2018-05-31T11:15:43.241Z,5.73
2018-05-31T11:18:10.835Z,5.60
2018-05-31T11:20:40.095Z,4.57
2018-05-31T11:23:07.615Z,5.90
2018-05-31T11:25:35.140Z,5.20
2018-05-31T11:28:03.420Z,5.30
2018-05-31T11:30:31.040Z,4.80
2018-05-31T11:32:58.561Z,5.37
2018-05-31T11:35:26.072Z,5.40
2018-05-31T11:37:53.576Z,6.17
2018-05-31T11:40:21.099Z,4.83
2018-05-31T11:42:49.359Z,4.10
2018-05-31T11:45:16.854Z,6.60
2018-05-31T11:47:44.389Z,5.10
2018-05-31T11:50:12.664Z,4.60
2018-05-31T11:52:40.938Z,4.80
2018-05-31T11:55:09.224Z,4.97
2018-05-31T11:57:37.500Z,4.30
2018-05-31T12:00:05.806Z,4.80
2018-05-31T12:02:33.316Z,5.20
2018-05-31T12:05:01.582Z,5.73
2018-05-31T12:07:29.128Z,4.60
2018-05-31T12:09:56.630Z,9.93
2018-05-31T12:12:24.510Z,5.33
2018-05-31T12:14:52.164Z,6.23
2018-05-31T12:17:19.866Z,6.47
2018-05-31T12:19:47.386Z,4.93
2018-05-31T12:22:14.875Z,5.10
2018-05-31T12:24:42.404Z,14.90
2018-05-31T12:27:09.888Z,5.27
2018-05-31T12:29:37.420Z,5.13
2018-05-31T12:32:04.920Z,4.90
2018-05-31T12:34:32.525Z,5.17
2018-05-31T12:37:00.892Z,4.77
2018-05-31T12:39:29.169Z,4.50
2018-05-31T12:41:57.436Z,4.93
2018-05-31T12:44:25.705Z,4.33
2018-05-31T12:46:53.990Z,5.20
2018-05-31T12:49:22.256Z,5.70
2018-05-31T12:51:49.758Z,5.07
2018-05-31T12:54:17.288Z,4.93
2018-05-31T12:56:45.557Z,4.50
2018-05-31T12:59:13.815Z,4.63
2018-05-31T13:01:42.934Z,4.40
2018-05-31T13:04:11.183Z,4.80
2018-05-31T13:06:38.675Z,4.10
2018-05-31T13:09:06.200Z,4.60
2018-05-31T13:11:33.713Z,4.67
2018-05-31T13:14:01.212Z,4.57
2018-05-31T13:16:28.712Z,4.80
2018-05-31T13:18:56.248Z,5.97
2018-05-31T13:21:23.711Z,4.47
2018-05-31T13:23:51.987Z,4.90
2018-05-31T13:26:20.263Z,5.70
2018-05-31T13:28:48.555Z,5.30
2018-05-31T13:31:16.045Z,5.40
2018-05-31T13:33:43.579Z,12.10
2018-05-31T13:36:11.085Z,5.70
2018-05-31T13:38:39.257Z,6.07
2018-05-31T13:41:06.785Z,7.10
2018-05-31T13:43:34.393Z,6.83
2018-05-31T13:46:02.769Z,5.47
2018-05-31T13:48:31.051Z,5.73
2018-05-31T13:50:59.353Z,4.77
2018-05-31T13:53:26.850Z,5.70
2018-05-31T13:55:54.344Z,5.70
2018-05-31T13:58:21.848Z,5.30
2018-05-31T14:00:49.361Z,5.80
2018-05-31T14:03:17.632Z,6.13
2018-05-31T14:05:45.893Z,5.10
2018-05-31T14:08:14.182Z,5.83
2018-05-31T14:10:42.449Z,5.20
2018-05-31T14:13:10.726Z,9.77
2018-05-31T14:15:39.383Z,6.40
2018-05-31T14:18:06.924Z,6.50
2018-05-31T14:20:34.443Z,6.03
2018-05-31T14:23:02.122Z,6.53
2018-05-31T14:25:29.635Z,5.70
2018-05-31T14:27:57.924Z,7.60
2018-05-31T14:30:26.200Z,7.97
2018-05-31T14:32:54.521Z,15.03
2018-05-31T14:35:22.423Z,6.53
2018-05-31T14:37:49.992Z,6.83
2018-05-31T14:40:17.515Z,6.03
2018-05-31T14:42:45.148Z,5.53
2018-05-31T14:45:12.669Z,6.30
2018-05-31T14:47:40.951Z,6.10
2018-05-31T14:50:09.230Z,6.00
2018-05-31T14:52:37.512Z,6.10
2018-05-31T14:55:05.767Z,97.77
2018-05-31T14:57:34.991Z,6.60
2018-05-31T15:00:02.520Z,6.43
2018-05-31T15:02:30.105Z,6.33
2018-05-31T15:04:57.608Z,6.67
2018-05-31T15:07:25.148Z,7.43
2018-05-31T15:09:52.682Z,6.53
2018-05-31T15:12:21.263Z,6.57
2018-05-31T15:14:48.762Z,8.07
2018-05-31T15:17:16.320Z,8.07
2018-05-31T15:19:43.972Z,6.23
2018-05-31T15:22:12.237Z,6.10
2018-05-31T15:24:39.749Z,10.77
2018-05-31T15:27:08.090Z,6.67
2018-05-31T15:29:35.644Z,6.77
2018-05-31T15:32:03.256Z,8.03
2018-05-31T15:34:31.543Z,5.60
2018-05-31T15:36:59.091Z,7.37
2018-05-31T15:39:27.685Z,5.97
2018-05-31T15:41:55.183Z,5.97
2018-05-31T15:44:22.684Z,5.90
2018-05-31T15:46:50.994Z,5.47
2018-05-31T15:49:29.640Z,5.67
2018-05-31T15:51:57.244Z,5.37
2018-05-31T15:54:25.520Z,7.00
2018-05-31T15:56:53.794Z,8.10
2018-05-31T15:59:22.141Z,5.73
2018-05-31T16:01:49.826Z,6.70
2018-05-31T16:04:18.106Z,6.40
2018-05-31T16:06:46.401Z,5.87
2018-05-31T16:09:13.893Z,6.67
2018-05-31T16:11:41.400Z,7.20
2018-05-31T16:14:08.961Z,8.37
2018-05-31T16:16:37.296Z,6.70
2018-05-31T16:19:04.809Z,7.80
2018-05-31T16:21:33.198Z,10.57
2018-05-31T16:24:00.714Z,6.00
2018-05-31T16:26:28.973Z,6.03
2018-05-31T16:28:56.499Z,6.20
2018-05-31T16:31:25.093Z,6.67
2018-05-31T16:33:52.601Z,5.70
2018-05-31T16:36:20.909Z,5.20
2018-05-31T16:38:48.435Z,6.43
2018-05-31T16:41:16.809Z,5.50
2018-05-31T16:43:45.092Z,5.60
2018-05-31T16:46:13.435Z,4.97
2018-05-31T16:48:40.929Z,5.47
2018-05-31T16:51:08.458Z,4.73
2018-05-31T16:53:35.963Z,5.20
2018-05-31T16:56:03.460Z,4.83
2018-05-31T16:58:31.118Z,6.10
2018-05-31T17:00:58.808Z,5.60
2018-05-31T17:03:27.203Z,4.33
2018-05-31T17:05:55.479Z,6.17
2018-05-31T17:08:22.991Z,5.00
2018-05-31T17:10:50.516Z,7.10
2018-05-31T17:13:19.383Z,6.73
2018-05-31T17:15:46.887Z,5.13
2018-05-31T17:18:14.661Z,4.80
2018-05-31T17:20:42.533Z,4.53
2018-05-31T17:23:10.040Z,5.37
2018-05-31T17:25:37.545Z,5.47
2018-05-31T17:28:05.037Z,5.00
2018-05-31T17:30:33.282Z,4.97
2018-05-31T17:33:00.792Z,7.40
2018-05-31T17:35:28.444Z,8.67
2018-05-31T17:37:55.961Z,6.23
2018-05-31T17:40:23.498Z,8.87
2018-05-31T17:42:51.100Z,8.27
2018-05-31T17:45:19.693Z,6.63
2018-05-31T17:47:47.251Z,5.53
2018-05-31T17:50:15.577Z,6.07
2018-05-31T17:52:43.210Z,9.80
2018-05-31T17:55:10.723Z,10.73
2018-05-31T17:57:38.223Z,7.57
2018-05-31T18:00:05.751Z,5.07
2018-05-31T18:02:34.181Z,8.90
2018-05-31T18:05:01.687Z,9.50
2018-05-31T18:07:29.959Z,5.50
2018-05-31T18:09:58.214Z,8.20
2018-05-31T18:12:25.967Z,6.77
2018-05-31T18:14:53.605Z,16.20
2018-05-31T18:17:21.107Z,12.20
2018-05-31T18:19:49.521Z,28.20
2018-05-31T18:22:20.117Z,25.57
2018-05-31T18:24:48.461Z,9.40
2018-05-31T18:27:15.979Z,6.50
2018-05-31T18:29:43.492Z,5.20
2018-05-31T18:32:11.388Z,6.27
2018-05-31T18:34:39.762Z,8.03
2018-05-31T18:37:07.204Z,6.70
2018-05-31T18:39:35.589Z,7.33
2018-05-31T18:42:04.079Z,6.53
2018-05-31T18:44:32.371Z,7.80
2018-05-31T18:46:59.876Z,10.70
2018-05-31T18:49:27.443Z,10.60
2018-05-31T18:51:55.127Z,10.17
2018-05-31T18:54:23.392Z,10.10
2018-05-31T18:56:52.712Z,7.83
2018-05-31T18:59:20.980Z,9.80
2018-05-31T19:01:49.408Z,10.50
2018-05-31T19:04:16.928Z,9.90
2018-05-31T19:06:44.461Z,9.70
2018-05-31T19:09:17.532Z,9.77
2018-05-31T19:11:45.053Z,10.57
2018-05-31T19:14:12.582Z,13.97
2018-05-31T19:16:40.171Z,10.30
2018-05-31T19:19:14.569Z,14.77
2018-05-31T19:21:42.134Z,10.60
2018-05-31T19:24:15.708Z,9.20
2018-05-31T19:26:44.022Z,8.93
2018-05-31T19:29:11.655Z,9.90
2018-05-31T19:31:39.951Z,11.83
2018-05-31T19:34:07.794Z,12.10
2018-05-31T19:36:41.663Z,21.70
2018-05-31T19:39:09.290Z,13.03
2018-05-31T19:41:36.823Z,11.57
2018-05-31T19:44:10.918Z,10.57
2018-05-31T19:46:39.904Z,10.70
2018-05-31T19:49:07.540Z,14.73
2018-05-31T19:51:53.659Z,16.50
2018-05-31T19:54:22.188Z,25.80
2018-05-31T19:56:49.718Z,11.27
2018-05-31T19:59:23.626Z,13.57
2018-05-31T20:01:57.515Z,11.47
2018-05-31T20:04:25.038Z,15.07
2018-05-31T20:06:52.649Z,13.63
2018-05-31T20:09:21.016Z,13.50
2018-05-31T20:11:53.939Z,12.03
2018-05-31T20:14:22.064Z,14.67
2018-05-31T20:16:49.678Z,13.57
2018-05-31T20:19:17.194Z,13.67
2018-05-31T20:21:44.751Z,13.50
2018-05-31T20:24:13.153Z,13.93
2018-05-31T20:26:40.916Z,16.07
2018-05-31T20:29:08.413Z,18.53
2018-05-31T20:31:36.008Z,19.50
2018-05-31T20:34:05.146Z,20.10
2018-05-31T20:36:33.650Z,21.60
2018-05-31T20:39:01.208Z,20.60
2018-05-31T20:41:28.710Z,23.00
2018-05-31T20:44:01.410Z,23.83
2018-05-31T20:46:29.173Z,22.80
2018-05-31T20:48:56.669Z,22.60
2018-05-31T20:51:24.288Z,24.20
2018-05-31T20:53:51.808Z,24.50
2018-05-31T20:56:19.386Z,24.83
2018-05-31T20:58:47.717Z,24.60
2018-05-31T21:01:15.324Z,37.03
2018-05-31T21:03:43.614Z,25.90
2018-05-31T21:06:11.872Z,25.83
2018-05-31T21:08:40.196Z,24.60
2018-05-31T21:11:07.709Z,24.73
2018-05-31T21:13:36.028Z,21.47
2018-05-31T21:16:03.572Z,20.93
2018-05-31T21:18:31.070Z,20.90
2018-05-31T21:20:58.671Z,22.53
2018-05-31T21:23:26.212Z,18.93
2018-05-31T21:26:02.182Z,19.90
2018-05-31T21:28:30.451Z,37.33
2018-05-31T21:30:58.837Z,29.90
2018-05-31T21:33:26.361Z,26.60
2018-05-31T21:35:53.857Z,26.40
2018-05-31T21:38:21.375Z,22.70
2018-05-31T21:40:48.906Z,22.77
2018-05-31T21:43:26.481Z,21.87
2018-05-31T21:45:54.305Z,21.90
2018-05-31T21:48:22.591Z,23.40
2018-05-31T21:50:50.869Z,34.77
2018-05-31T21:53:19.141Z,33.40
2018-05-31T21:55:47.405Z,31.43
2018-05-31T21:58:15.685Z,28.50
2018-05-31T22:00:49.550Z,24.60
2018-05-31T22:03:17.109Z,25.40
2018-05-31T22:05:44.642Z,25.50
2018-05-31T22:08:12.162Z,23.33
2018-05-31T22:10:40.487Z,22.40
2018-05-31T22:13:08.039Z,22.47
2018-05-31T22:15:35.861Z,24.03
2018-05-31T22:18:03.473Z,23.30
2018-05-31T22:20:30.989Z,22.67
2018-05-31T22:22:59.261Z,27.47
2018-05-31T22:25:27.549Z,27.67
2018-05-31T22:27:55.030Z,21.23
2018-05-31T22:30:22.657Z,20.83
2018-05-31T22:32:50.923Z,23.17
2018-05-31T22:35:19.237Z,22.40
2018-05-31T22:37:46.873Z,22.53
2018-05-31T22:40:15.361Z,21.27
2018-05-31T22:42:42.888Z,20.70
2018-05-31T22:45:10.389Z,22.80
2018-05-31T22:47:37.902Z,21.00
2018-05-31T22:50:05.393Z,20.37
2018-05-31T22:52:32.933Z,21.80
2018-05-31T22:55:01.211Z,25.53
2018-05-31T22:57:29.705Z,26.80
2018-05-31T22:59:57.244Z,27.60
2018-05-31T23:02:25.513Z,25.83
2018-05-31T23:04:53.781Z,26.00
2018-05-31T23:07:21.305Z,31.63
2018-05-31T23:09:48.812Z,35.10
2018-05-31T23:12:17.117Z,35.87
2018-05-31T23:14:44.657Z,29.50
2018-05-31T23:17:12.957Z,27.37
2018-05-31T23:19:40.609Z,30.17
2018-05-31T23:22:08.097Z,29.07
2018-05-31T23:24:35.703Z,29.87
2018-05-31T23:27:03.949Z,31.83
2018-05-31T23:29:31.537Z,30.60
2018-05-31T23:31:59.797Z,29.37
2018-05-31T23:34:27.377Z,36.17
2018-05-31T23:36:55.625Z,39.73
2018-05-31T23:39:23.216Z,35.33
2018-05-31T23:41:50.758Z,29.67
2018-05-31T23:44:19.051Z,28.33
2018-05-31T23:46:46.555Z,26.10
2018-05-31T23:49:14.053Z,24.87
2018-05-31T23:51:42.340Z,27.23
2018-05-31T23:54:09.830Z,25.87
2018-05-31T23:56:37.564Z,26.13
2018-05-31T23:59:05.064Z,24.87
